Time;durP1;ratioP1;P1;durP2;ratioP2;P2;SDS_P1;SDS_P2;PMS_P1;PMS_P2;Temp;Humidity;BMP_temperature;BMP_pressure;BME280_temperature;BME280_humidity;BME280_pressure;Samples;Min_cycle;Max_cycle;Signal;HPM_P1;HPM_P2
2022/04/12 00:00:04;;;;;;;63.53;34.00;;;179.20;1843.20;;;;;;4843587;29;20122;-65
2022/04/12 00:02:30;;;;;;;70.07;35.55;;;154.50;1868.80;;;;;;4845865;29;20033;-65
2022/04/12 00:04:55;;;;;;;61.47;31.92;;;179.20;1843.20;;;;;;4845302;29;20042;-66
2022/04/12 00:07:21;;;;;;;57.53;30.20;;;154.50;1843.20;;;;;;4845176;29;20082;-65
2022/04/12 00:09:47;;;;;;;60.33;31.52;;;154.50;1843.20;;;;;;4845746;29;20392;-65
2022/04/12 00:12:15;;;;;;;54.13;28.85;;;179.20;1817.60;;;;;;4844771;29;20041;-65
2022/04/12 00:14:41;;;;;;;55.15;29.10;;;154.50;1843.20;;;;;;4845722;29;20053;-65
2022/04/12 00:19:50;;;;;;;48.20;27.52;;;154.50;1843.20;;;;;;4845689;29;20060;-65
2022/04/12 00:22:16;;;;;;;53.08;28.40;;;154.40;1868.80;;;;;;4845406;29;20112;-65
2022/04/12 00:24:42;;;;;;;50.05;27.95;;;154.50;1817.60;;;;;;4845301;29;20076;-65
2022/04/12 00:27:07;;;;;;;50.70;27.35;;;154.40;1894.40;;;;;;4845028;29;20026;-65
2022/04/12 00:29:33;;;;;;;49.42;26.45;;;154.40;1868.80;;;;;;4845023;29;20041;-65
2022/04/12 00:32:00;;;;;;;45.13;25.02;;;154.40;1843.20;;;;;;4845350;29;20025;-65
2022/04/12 00:34:26;;;;;;;43.50;24.60;;;154.40;1868.80;;;;;;4845034;29;20511;-65
2022/04/12 00:36:51;;;;;;;45.10;25.17;;;154.50;1843.20;;;;;;4845064;29;20034;-65
2022/04/12 00:39:17;;;;;;;42.58;24.80;;;154.50;1843.20;;;;;;4844971;29;20050;-65
2022/04/12 00:41:43;;;;;;;42.72;25.08;;;154.50;1894.40;;;;;;4844734;29;20030;-65
2022/04/12 00:44:09;;;;;;;43.20;24.23;;;179.20;1843.20;;;;;;4844973;29;20508;-65
2022/04/12 00:46:35;;;;;;;46.63;25.98;;;154.50;1868.80;;;;;;4845081;29;20377;-65
2022/04/12 00:49:01;;;;;;;46.97;27.92;;;154.50;1868.80;;;;;;4844803;29;20168;-65
2022/04/12 00:51:28;;;;;;;45.45;26.67;;;154.50;1817.60;;;;;;4844768;29;20109;-65
2022/04/12 00:53:54;;;;;;;47.00;26.38;;;154.40;1843.20;;;;;;4828295;29;20106;-65
2022/04/12 00:56:20;;;;;;;45.63;24.70;;;154.40;1843.20;;;;;;4844686;29;20471;-65
2022/04/12 00:58:49;;;;;;;44.78;25.80;;;154.40;1843.20;;;;;;4844375;29;20519;-65
2022/04/12 01:01:15;;;;;;;52.58;25.52;;;154.30;1868.80;;;;;;4844589;29;20022;-65
2022/04/12 01:03:41;;;;;;;47.88;26.60;;;154.50;1817.60;;;;;;4844549;29;20359;-66
2022/04/12 01:06:07;;;;;;;53.50;27.27;;;154.40;1843.20;;;;;;4844519;29;20109;-65
2022/04/12 01:08:34;;;;;;;54.33;29.30;;;154.40;1843.20;;;;;;4844698;29;20030;-65
2022/04/12 01:11:06;;;;;;;62.10;32.67;;;154.40;1817.60;;;;;;4843643;29;20030;-65
2022/04/12 01:13:35;;;;;;;64.00;31.50;;;154.20;1843.20;;;;;;4844282;29;20041;-65
2022/04/12 01:16:01;;;;;;;58.65;31.17;;;154.30;1843.20;;;;;;4844362;29;20036;-65
2022/04/12 01:18:26;;;;;;;120.72;45.72;;;154.20;1843.20;;;;;;4844386;29;20030;-65
2022/04/12 01:20:52;;;;;;;150.98;50.55;;;154.20;1843.20;;;;;;4844330;29;20362;-65
2022/04/12 01:23:29;;;;;;;299.55;84.85;;;154.20;1817.60;;;;;;4844233;29;20026;-65
2022/04/12 01:25:55;;;;;;;227.60;72.30;;;154.10;1843.20;;;;;;4844100;29;20430;-65
2022/04/12 01:28:20;;;;;;;80.75;37.45;;;154.20;1817.60;;;;;;4844083;29;20094;-65
2022/04/12 01:30:46;;;;;;;58.67;31.95;;;154.20;1792.00;;;;;;4843886;29;20046;-65
2022/04/12 01:33:12;;;;;;;57.90;30.98;;;154.10;1817.60;;;;;;4844242;29;20033;-65
2022/04/12 01:35:37;;;;;;;67.72;32.75;;;154.20;1817.60;;;;;;4844146;29;20112;-65
2022/04/12 01:38:03;;;;;;;67.30;33.05;;;154.10;1843.20;;;;;;4844001;29;20042;-65
2022/04/12 01:40:29;;;;;;;61.95;31.08;;;154.00;1843.20;;;;;;4843910;29;20034;-65
2022/04/12 01:42:55;;;;;;;61.55;31.88;;;154.10;1817.60;;;;;;4844064;29;20110;-65
2022/04/12 01:45:21;;;;;;;58.58;31.30;;;153.90;1843.20;;;;;;4843910;29;20030;-65
2022/04/12 01:47:47;;;;;;;61.15;31.85;;;154.00;1843.20;;;;;;4843528;29;20040;-65
2022/04/12 01:50:13;;;;;;;63.65;34.72;;;153.90;1843.20;;;;;;4843676;29;20026;-65
2022/04/12 01:52:39;;;;;;;57.55;32.25;;;153.90;1868.80;;;;;;4843754;29;20045;-65
2022/04/12 01:55:05;;;;;;;60.75;31.60;;;153.90;1843.20;;;;;;4843465;29;20380;-65
2022/04/12 01:57:31;;;;;;;65.55;32.95;;;153.80;1868.80;;;;;;4843752;29;20054;-65
2022/04/12 01:59:59;;;;;;;73.50;34.67;;;153.80;1868.80;;;;;;4843797;29;20504;-65
2022/04/12 02:02:25;;;;;;;68.57;32.75;;;153.80;1843.20;;;;;;4843790;29;20041;-65
2022/04/12 02:04:51;;;;;;;67.13;33.10;;;153.70;1894.40;;;;;;4843588;29;20385;-65
2022/04/12 02:07:17;;;;;;;68.68;33.33;;;153.80;1868.80;;;;;;4843647;29;20034;-65
2022/04/12 02:09:42;;;;;;;67.53;32.17;;;153.60;1894.40;;;;;;4843468;29;20404;-65
2022/04/12 02:12:09;;;;;;;67.60;32.45;;;153.60;1894.40;;;;;;4843233;29;20605;-65
2022/04/12 02:14:34;;;;;;;59.50;30.45;;;153.60;1894.40;;;;;;4827348;29;20030;-65
2022/04/12 02:17:00;;;;;;;53.30;30.70;;;128.90;1894.40;;;;;;4843464;29;20377;-65
2022/04/12 02:19:26;;;;;;;69.88;35.13;;;153.60;1894.40;;;;;;4843260;29;20384;-65
2022/04/12 02:21:51;;;;;;;74.47;40.35;;;128.90;1894.40;;;;;;4843302;29;20030;-65
2022/04/12 02:24:17;;;;;;;75.90;39.97;;;128.80;1920.00;;;;;;4843013;29;20581;-65
2022/04/12 02:26:44;;;;;;;67.05;36.22;;;128.90;1894.40;;;;;;4843133;29;20033;-65
2022/04/12 02:29:13;;;;;;;63.17;35.03;;;128.80;1920.00;;;;;;4843159;29;20034;-65
2022/04/12 02:31:40;;;;;;;66.20;35.33;;;128.90;1920.00;;;;;;4842881;29;20054;-65
2022/04/12 02:34:06;;;;;;;69.60;36.50;;;128.80;1920.00;;;;;;4843167;29;20049;-65
2022/04/12 02:36:31;;;;;;;69.35;36.30;;;128.80;1920.00;;;;;;4842976;29;20029;-65
2022/04/12 02:38:57;;;;;;;89.97;42.22;;;128.90;1868.80;;;;;;4843037;29;20038;-65
2022/04/12 02:41:23;;;;;;;99.32;46.83;;;128.80;1894.40;;;;;;4843036;29;20052;-65
2022/04/12 02:43:48;;;;;;;83.57;44.20;;;128.90;1868.80;;;;;;4842468;29;20495;-65
2022/04/12 02:46:14;;;;;;;83.68;47.88;;;128.90;1894.40;;;;;;4842854;29;20030;-65
2022/04/12 02:48:40;;;;;;;81.93;44.83;;;128.70;1920.00;;;;;;4842786;29;20106;-65
2022/04/12 02:51:06;;;;;;;87.82;44.25;;;128.80;1894.40;;;;;;4842875;29;20034;-65
2022/04/12 02:53:31;;;;;;;81.72;42.10;;;128.60;1920.00;;;;;;4842831;29;20033;-65
2022/04/12 02:55:57;;;;;;;78.85;41.55;;;128.60;1920.00;;;;;;4842580;29;20076;-65
2022/04/12 02:58:23;;;;;;;75.30;40.20;;;128.50;1920.00;;;;;;4842657;29;20426;-65
2022/04/12 03:00:48;;;;;;;72.38;38.45;;;128.50;1945.60;;;;;;4842574;29;20377;-65
2022/04/12 03:03:14;;;;;;;71.15;37.63;;;128.60;1894.40;;;;;;4843228;29;20037;-65
2022/04/12 03:05:40;;;;;;;66.63;36.13;;;128.50;1920.00;;;;;;4842774;29;20030;-65
2022/04/12 03:08:07;;;;;;;71.97;38.35;;;128.50;1945.60;;;;;;4842449;29;20042;-65
2022/04/12 03:10:33;;;;;;;123.15;64.00;;;128.40;1945.60;;;;;;4842746;29;20038;-64
2022/04/12 03:12:58;;;;;;;225.02;113.28;;;128.40;1945.60;;;;;;4842797;29;20037;-65
2022/04/12 03:15:24;;;;;;;187.23;99.10;;;128.30;1945.60;;;;;;4842440;29;20094;-65
2022/04/12 03:17:50;;;;;;;133.23;70.97;;;128.30;1971.20;;;;;;4825413;29;20053;-65
2022/04/12 03:20:15;;;;;;;129.15;65.45;;;128.30;1971.20;;;;;;4842607;29;20048;-65
2022/04/12 03:22:42;;;;;;;103.05;54.50;;;128.20;1971.20;;;;;;4842324;29;20038;-65
2022/04/12 03:25:11;;;;;;;92.38;47.70;;;128.10;1971.20;;;;;;4842681;29;20116;-65
2022/04/12 03:27:37;;;;;;;85.85;43.55;;;128.20;1971.20;;;;;;4842304;29;20026;-65
2022/04/12 03:30:04;;;;;;;74.78;39.13;;;128.10;1996.80;;;;;;4842368;29;20081;-65
2022/04/12 03:32:30;;;;;;;72.78;38.15;;;128.10;1996.80;;;;;;4842578;29;20136;-65
2022/04/12 03:34:56;;;;;;;69.07;37.53;;;128.10;1996.80;;;;;;4843814;29;20112;-65
2022/04/12 03:37:22;;;;;;;71.30;37.92;;;128.00;2022.40;;;;;;4846228;29;20053;-65
2022/04/12 03:39:50;;;;;;;61.95;34.42;;;128.10;1996.80;;;;;;4845965;29;20054;-65
2022/04/12 03:42:18;;;;;;;66.25;32.05;;;128.00;2022.40;;;;;;4845792;29;20439;-65
2022/04/12 03:44:47;;;;;;;60.88;32.63;;;128.00;2048.00;;;;;;4846002;29;20052;-65
2022/04/12 03:47:12;;;;;;;56.22;30.25;;;128.00;2048.00;;;;;;4845976;29;20054;-65
2022/04/12 03:49:39;;;;;;;58.80;31.58;;;128.00;2048.00;;;;;;4845925;29;20405;-65
2022/04/12 03:52:05;;;;;;;57.70;28.95;;;128.10;2048.00;;;;;;4846046;29;20037;-65
2022/04/12 03:54:30;;;;;;;54.95;28.77;;;128.00;2048.00;;;;;;4845857;29;20033;-65
2022/04/12 03:56:57;;;;;;;71.18;29.40;;;128.00;2048.00;;;;;;4845754;29;20034;-65
2022/04/12 03:59:23;;;;;;;46.05;26.48;;;128.00;2073.60;;;;;;4845400;29;20042;-65
2022/04/12 04:01:49;;;;;;;75.05;32.38;;;128.00;2048.00;;;;;;4845748;29;20052;-66
2022/04/12 04:04:16;;;;;;;61.78;30.52;;;128.10;2048.00;;;;;;4845619;29;20488;-65
2022/04/12 04:06:42;;;;;;;68.07;33.63;;;128.20;2048.00;;;;;;4845578;29;20026;-66
2022/04/12 04:09:07;;;;;;;62.67;30.88;;;128.10;2048.00;;;;;;4845567;29;20376;-65
2022/04/12 04:11:33;;;;;;;58.55;29.50;;;128.10;2073.60;;;;;;4845569;29;20026;-65
2022/04/12 04:14:03;;;;;;;57.03;27.90;;;128.10;2073.60;;;;;;4845601;29;20476;-65
2022/04/12 04:16:29;;;;;;;55.72;28.60;;;128.10;2073.60;;;;;;4845156;29;20030;-65
2022/04/12 04:18:55;;;;;;;74.88;37.85;;;128.00;2073.60;;;;;;4845499;29;20129;-65
2022/04/12 04:21:21;;;;;;;82.78;38.60;;;128.00;2073.60;;;;;;4845338;29;20113;-64
2022/04/12 04:23:47;;;;;;;75.15;37.03;;;128.00;2099.20;;;;;;4845417;29;20034;-65
2022/04/12 04:26:12;;;;;;;66.43;36.78;;;128.00;2099.20;;;;;;4845445;29;20549;-64
2022/04/12 04:28:41;;;;;;;55.78;33.75;;;128.00;2124.80;;;;;;4845523;29;20034;-65
2022/04/12 04:31:07;;;;;;;68.78;41.00;;;128.10;2124.80;;;;;;4845167;29;20049;-64
2022/04/12 04:33:33;;;;;;;62.30;38.00;;;128.10;2124.80;;;;;;4845289;29;20064;-65
2022/04/12 04:35:59;;;;;;;59.97;34.97;;;128.10;2124.80;;;;;;4845308;29;20073;-65
2022/04/12 04:38:25;;;;;;;73.93;33.90;;;128.20;2124.80;;;;;;4845072;29;20041;-65
2022/04/12 04:40:50;;;;;;;56.65;30.75;;;128.20;2124.80;;;;;;4845269;29;20038;-64
2022/04/12 04:43:16;;;;;;;53.40;31.05;;;128.30;2124.80;;;;;;4845240;29;20033;-65
2022/04/12 04:45:45;;;;;;;74.78;34.28;;;128.50;2048.00;;;;;;4844723;29;20437;-65
2022/04/12 04:48:11;;;;;;;59.63;33.72;;;128.60;2073.60;;;;;;4845244;29;20038;-65
2022/04/12 04:50:37;;;;;;;56.40;33.10;;;128.70;2073.60;;;;;;4844700;29;20090;-64
2022/04/12 04:53:05;;;;;;;51.90;31.60;;;128.70;2073.60;;;;;;4844427;29;20034;-65
2022/04/12 04:55:35;;;;;;;60.10;32.05;;;128.70;2099.20;;;;;;4844580;29;20059;-65
2022/04/12 04:58:01;;;;;;;49.95;28.85;;;128.70;2073.60;;;;;;4844763;29;20389;-64
2022/04/12 05:00:34;;;;;;;50.97;28.33;;;128.90;2073.60;;;;;;4860410;29;20041;-64
2022/04/12 05:03:01;;;;;;;45.13;26.60;;;128.90;2099.20;;;;;;4854190;29;20033;-64
2022/04/12 05:05:28;;;;;;;47.35;25.98;;;153.70;2048.00;;;;;;4850736;29;20060;-64
2022/04/12 05:07:56;;;;;;;42.88;27.38;;;153.70;2048.00;;;;;;4845776;29;20119;-64
2022/04/12 05:10:30;;;;;;;44.67;27.70;;;153.70;2073.60;;;;;;4854182;29;20036;-63
2022/04/12 05:12:57;;;;;;;43.97;26.83;;;153.80;2048.00;;;;;;4853698;29;20033;-65
2022/04/12 05:15:23;;;;;;;40.95;24.90;;;154.00;2022.40;;;;;;4851869;29;20117;-64
2022/04/12 05:17:50;;;;;;;38.08;20.52;;;153.90;2048.00;;;;;;4851936;29;20022;-65
2022/04/12 05:20:17;;;;;;;38.35;19.70;;;154.00;2022.40;;;;;;4858739;29;20033;-65
2022/04/12 05:22:43;;;;;;;41.80;22.75;;;154.10;2022.40;;;;;;4862928;29;20053;-65
2022/04/12 05:25:09;;;;;;;40.65;22.55;;;154.20;2022.40;;;;;;4862552;29;20109;-65
2022/04/12 05:27:35;;;;;;;40.25;21.05;;;154.30;1996.80;;;;;;4862181;29;20086;-65
2022/04/12 05:30:03;;;;;;;38.28;20.73;;;154.50;1971.20;;;;;;4862135;29;20057;-66
2022/04/12 05:32:28;;;;;;;32.42;18.40;;;179.20;1945.60;;;;;;4862567;29;20037;-66
2022/04/12 05:34:54;;;;;;;33.63;19.13;;;179.30;1945.60;;;;;;4862571;29;20041;-66
2022/04/12 05:37:21;;;;;;;35.45;19.48;;;179.40;1920.00;;;;;;4862621;29;20035;-67
2022/04/12 05:39:46;;;;;;;71.97;21.42;;;179.50;1920.00;;;;;;4862471;29;20077;-67
2022/04/12 05:42:12;;;;;;;34.28;19.02;;;179.70;1920.00;;;;;;4862611;29;20040;-66
2022/04/12 05:44:38;;;;;;;121.35;22.88;;;179.80;1894.40;;;;;;4862025;29;20383;-76
2022/04/12 05:47:04;;;;;;;131.90;22.40;;;180.10;1868.80;;;;;;4862553;29;20030;-66
2022/04/12 05:49:31;;;;;;;79.55;18.83;;;180.10;1868.80;;;;;;4862728;29;20086;-64
2022/04/12 05:51:57;;;;;;;132.60;20.90;;;204.80;1817.60;;;;;;4861965;29;20059;-63
2022/04/12 05:54:23;;;;;;;156.98;22.30;;;204.90;1792.00;;;;;;4862135;29;20033;-64
2022/04/12 05:56:50;;;;;;;265.70;32.65;;;205.10;1817.60;;;;;;4861804;29;20030;-59
2022/04/12 05:59:15;;;;;;;146.63;27.17;;;205.20;1792.00;;;;;;4862043;29;20128;-59
2022/04/12 06:01:41;;;;;;;1999.90;180.82;;;205.30;1792.00;;;;;;4862105;29;20550;-68
2022/04/12 06:04:07;;;;;;;1178.80;113.03;;;205.40;1766.40;;;;;;4862231;29;20029;-60
2022/04/12 06:06:34;;;;;;;448.98;49.58;;;205.60;1792.00;;;;;;4862092;29;20033;-64
2022/04/12 06:09:00;;;;;;;89.88;20.70;;;230.40;1766.40;;;;;;4862047;29;20038;-59
2022/04/12 06:11:27;;;;;;;46.30;16.98;;;230.50;1766.40;;;;;;4861979;29;20033;-59
2022/04/12 06:13:53;;;;;;;1904.88;208.57;;;230.60;1766.40;;;;;;4862124;29;20108;-68
2022/04/12 06:16:19;;;;;;;631.50;65.85;;;230.80;1766.40;;;;;;4861989;29;20086;-60
2022/04/12 06:18:44;;;;;;;1999.90;284.83;;;230.90;1715.20;;;;;;4861853;29;20433;-67
2022/04/12 06:21:10;;;;;;;1999.90;667.30;;;231.00;1612.80;;;;;;4861898;29;20036;-59
2022/04/12 06:23:36;;;;;;;1542.75;147.32;;;231.20;1612.80;;;;;;4861633;29;20041;-63
2022/04/12 06:26:02;;;;;;;389.83;39.47;;;231.30;1561.60;;;;;;4861766;29;20078;-62
2022/04/12 06:28:29;;;;;;;404.30;44.63;;;256.00;1561.60;;;;;;4861737;29;20112;-62
2022/04/12 06:30:57;;;;;;;432.65;47.13;;;256.10;1587.20;;;;;;4861646;29;20524;-60
2022/04/12 06:33:23;;;;;;;158.70;25.02;;;256.30;1612.80;;;;;;4861331;29;20499;-67
2022/04/12 06:35:49;;;;;;;103.28;21.70;;;256.40;1612.80;;;;;;4861444;29;20049;-60
2022/04/12 06:38:15;;;;;;;59.58;18.65;;;256.60;1638.40;;;;;;4861553;29;20037;-59
2022/04/12 06:40:42;;;;;;;34.28;16.23;;;256.70;1638.40;;;;;;4861956;29;20041;-62
2022/04/12 06:43:08;;;;;;;33.33;16.23;;;256.80;1587.20;;;;;;4861467;29;20029;-58
2022/04/12 06:45:33;;;;;;;35.30;15.90;;;256.90;1612.80;;;;;;4861615;29;20037;-58
2022/04/12 06:48:00;;;;;;;54.13;27.70;;;281.60;1561.60;;;;;;4861330;29;20468;-59
2022/04/12 06:50:27;;;;;;;102.57;37.45;;;281.70;1587.20;;;;;;4861495;29;20527;-60
2022/04/12 06:52:54;;;;;;;87.97;22.77;;;281.90;1612.80;;;;;;4861511;29;20441;-63
2022/04/12 06:55:21;;;;;;;68.75;15.95;;;282.00;1587.20;;;;;;4861466;29;20091;-59
2022/04/12 06:57:47;;;;;;;204.45;25.35;;;282.20;1587.20;;;;;;4861212;29;20109;-60
2022/04/12 07:00:14;;;;;;;57.58;14.38;;;282.30;1561.60;;;;;;4861136;29;20108;-60
2022/04/12 07:02:40;;;;;;;49.25;13.60;;;282.50;1561.60;;;;;;4861468;29;20496;-60
2022/04/12 07:05:07;;;;;;;60.97;26.20;;;307.20;1561.60;;;;;;4861256;29;20064;-60
2022/04/12 07:07:36;;;;;;;105.07;22.38;;;307.40;1561.60;;;;;;4861293;29;20038;-63
2022/04/12 07:10:03;;;;;;;56.15;25.95;;;307.50;1536.00;;;;;;4862924;29;20029;-59
2022/04/12 07:12:28;;;;;;;29.95;13.18;;;307.70;1510.40;;;;;;4865568;29;20032;-63
2022/04/12 07:14:54;;;;;;;37.90;20.08;;;307.80;1484.80;;;;;;4865034;29;20112;-60
2022/04/12 07:17:20;;;;;;;40.63;19.13;;;307.90;1459.20;;;;;;4865151;29;20368;-60
2022/04/12 07:19:46;;;;;;;22.55;12.32;;;308.10;1459.20;;;;;;4864887;29;20045;-61
2022/04/12 07:22:12;;;;;;;15.35;8.57;;;332.80;1433.60;;;;;;4864878;29;20029;-60
2022/04/12 07:24:37;;;;;;;64.63;43.45;;;333.00;1408.00;;;;;;4864898;29;20380;-60
2022/04/12 07:27:03;;;;;;;25.42;14.15;;;333.10;1408.00;;;;;;4864954;29;20491;-59
2022/04/12 07:29:30;;;;;;;74.53;16.10;;;333.20;1433.60;;;;;;4864875;29;20036;-64
2022/04/12 07:31:56;;;;;;;22.13;9.95;;;333.40;1408.00;;;;;;4864788;29;20037;-67
2022/04/12 07:34:22;;;;;;;25.42;13.65;;;333.60;1408.00;;;;;;4864735;29;20154;-59
2022/04/12 07:36:53;;;;;;;25.80;13.93;;;358.40;1408.00;;;;;;4864764;29;20100;-60
2022/04/12 07:39:19;;;;;;;33.65;10.43;;;358.50;1356.80;;;;;;4864695;29;20042;-59
2022/04/12 07:41:47;;;;;;;28.15;10.85;;;358.60;1331.20;;;;;;4864617;29;20479;-63
2022/04/12 07:44:13;;;;;;;34.75;12.07;;;358.80;1331.20;;;;;;4864566;29;20365;-58
2022/04/12 07:46:39;;;;;;;49.13;11.65;;;358.90;1356.80;;;;;;4864466;29;20417;-58
2022/04/12 07:49:05;;;;;;;18.33;7.53;;;359.30;1382.40;;;;;;4864743;29;20033;-60
2022/04/12 07:51:31;;;;;;;12.70;8.70;;;384.00;1254.40;;;;;;4864317;29;20033;-62
2022/04/12 07:53:57;;;;;;;10.55;7.78;;;384.20;1228.80;;;;;;4864301;29;20033;-63
2022/04/12 07:56:23;;;;;;;13.82;8.25;;;384.30;1203.20;;;;;;4864062;29;20036;-60
2022/04/12 07:58:48;;;;;;;14.55;7.93;;;384.50;1177.60;;;;;;4864317;29;20041;-61
2022/04/12 08:01:14;;;;;;;10.77;6.32;;;384.60;1203.20;;;;;;4864138;29;20025;-59
2022/04/12 08:03:40;;;;;;;16.60;6.78;;;384.80;1152.00;;;;;;4864223;29;20034;-59
2022/04/12 08:06:06;;;;;;;13.65;6.78;;;409.60;1177.60;;;;;;4864388;29;20038;-60
2022/04/12 08:08:32;;;;;;;12.90;6.93;;;409.60;1177.60;;;;;;4864175;29;20030;-61
2022/04/12 08:10:58;;;;;;;12.90;7.10;;;409.70;1152.00;;;;;;4864595;29;20116;-60
2022/04/12 08:13:24;;;;;;;13.95;6.95;;;409.80;1126.40;;;;;;4864096;29;20041;-60
2022/04/12 08:15:50;;;;;;;13.05;7.93;;;409.90;1126.40;;;;;;4863928;29;20109;-60
2022/04/12 08:18:16;;;;;;;11.02;7.00;;;410.00;1152.00;;;;;;4864066;29;20053;-60
2022/04/12 08:20:42;;;;;;;18.67;6.15;;;410.10;1152.00;;;;;;4863937;29;20034;-60
2022/04/12 08:23:08;;;;;;;9.00;5.68;;;410.30;1126.40;;;;;;4863913;29;20489;-60
2022/04/12 08:25:34;;;;;;;12.57;6.30;;;410.40;1075.20;;;;;;4863890;29;20484;-62
2022/04/12 08:27:59;;;;;;;9.52;4.22;;;410.50;1024.00;;;;;;4863680;29;20033;-61
2022/04/12 08:30:25;;;;;;;11.32;5.82;;;435.20;998.40;;;;;;4863544;29;20538;-62
2022/04/12 08:32:51;;;;;;;10.52;5.50;;;435.30;1049.60;;;;;;4863686;29;20417;-62
2022/04/12 08:35:17;;;;;;;8.10;4.68;;;435.40;1049.60;;;;;;4863887;29;20034;-61
2022/04/12 08:37:44;;;;;;;9.05;5.00;;;435.40;998.40;;;;;;4863467;29;20468;-59
2022/04/12 08:40:10;;;;;;;8.15;4.78;;;435.50;998.40;;;;;;4862229;29;20037;-60
2022/04/12 08:42:37;;;;;;;9.07;5.00;;;435.70;1024.00;;;;;;4854648;29;20042;-62
2022/04/12 08:45:07;;;;;;;8.38;5.60;;;435.70;998.40;;;;;;4852607;29;20034;-61
2022/04/12 08:47:36;;;;;;;10.70;5.45;;;435.90;947.20;;;;;;4854196;29;20037;-60
2022/04/12 08:50:04;;;;;;;20.02;5.05;;;435.90;972.80;;;;;;4852805;29;20465;-59
2022/04/12 08:52:31;;;;;;;10.00;4.90;;;435.80;921.60;;;;;;4854489;29;20481;-60
2022/04/12 08:54:57;;;;;;;9.88;5.55;;;436.00;921.60;;;;;;4852730;29;20403;-60
2022/04/12 08:57:22;;;;;;;9.90;5.15;;;436.00;921.60;;;;;;4853811;29;20541;-63
2022/04/12 08:59:48;;;;;;;11.30;4.43;;;460.80;921.60;;;;;;4853923;29;20054;-63
2022/04/12 09:02:14;;;;;;;9.23;4.60;;;460.80;947.20;;;;;;4852460;29;20226;-60
2022/04/12 09:04:40;;;;;;;11.98;5.25;;;460.90;921.60;;;;;;4853815;29;20034;-60
2022/04/12 09:07:13;;;;;;;9.02;4.18;;;461.00;947.20;;;;;;4853668;29;20033;-63
2022/04/12 09:09:41;;;;;;;8.37;5.60;;;461.10;921.60;;;;;;4850824;29;20026;-61
2022/04/12 09:12:09;;;;;;;15.52;5.55;;;461.10;947.20;;;;;;4852672;29;20104;-60
2022/04/12 09:14:39;;;;;;;7.18;3.95;;;461.20;947.20;;;;;;4854228;29;20380;-60
2022/04/12 09:17:18;;;;;;;7.28;4.35;;;461.40;896.00;;;;;;4853658;29;20029;-60
2022/04/12 09:19:49;;;;;;;12.35;5.75;;;461.50;896.00;;;;;;4851581;29;20369;-61
2022/04/12 09:22:18;;;;;;;5.90;4.05;;;461.60;870.40;;;;;;4852233;29;20026;-62
2022/04/12 09:24:46;;;;;;;8.00;4.18;;;461.60;844.80;;;;;;4852682;29;20032;-62
2022/04/12 09:27:20;;;;;;;7.07;4.22;;;461.70;844.80;;;;;;4854217;29;20441;-60
2022/04/12 09:29:47;;;;;;;9.38;4.05;;;486.40;870.40;;;;;;4853149;29;20046;-64
2022/04/12 09:32:15;;;;;;;15.07;6.07;;;486.40;844.80;;;;;;4851344;29;20118;-63
2022/04/12 09:34:44;;;;;;;5.72;3.55;;;486.40;844.80;;;;;;4853200;29;20036;-60
2022/04/12 09:37:24;;;;;;;7.10;4.60;;;461.60;793.60;;;;;;4853842;29;20026;-63
2022/04/12 09:39:59;;;;;;;7.90;4.30;;;461.60;844.80;;;;;;4852864;29;20101;-62
2022/04/12 09:42:41;;;;;;;15.43;4.75;;;486.40;844.80;;;;;;4851658;29;20022;-64
2022/04/12 09:45:10;;;;;;;9.07;4.30;;;486.50;819.20;;;;;;4852024;29;20030;-64
2022/04/12 09:47:35;;;;;;;7.85;3.80;;;486.50;819.20;;;;;;4851694;29;20018;-63
2022/04/12 09:50:02;;;;;;;9.50;3.72;;;486.60;793.60;;;;;;4853031;29;20040;-60
2022/04/12 09:52:28;;;;;;;5.65;3.78;;;486.40;793.60;;;;;;4853256;29;20030;-61
2022/04/12 09:54:57;;;;;;;13.52;4.20;;;486.50;844.80;;;;;;4856623;29;20032;-61
2022/04/12 09:57:24;;;;;;;5.07;3.05;;;486.60;793.60;;;;;;4862294;29;20082;-60
2022/04/12 09:59:54;;;;;;;9.98;4.03;;;486.80;793.60;;;;;;4862085;29;20044;-60
2022/04/12 10:02:20;;;;;;;8.40;4.20;;;486.80;819.20;;;;;;4861956;29;20491;-60
2022/04/12 10:04:48;;;;;;;8.30;3.83;;;486.90;819.20;;;;;;4861996;29;20026;-65
2022/04/12 10:07:16;;;;;;;6.45;3.75;;;487.00;793.60;;;;;;4862021;29;20037;-65
2022/04/12 10:09:43;;;;;;;6.40;3.20;;;487.00;742.40;;;;;;4862323;29;20081;-60
2022/04/12 10:12:09;;;;;;;6.03;3.50;;;487.00;819.20;;;;;;4861915;29;20040;-60
2022/04/12 10:14:35;;;;;;;6.82;3.25;;;487.10;793.60;;;;;;4862043;29;20030;-61
2022/04/12 10:17:01;;;;;;;6.80;4.32;;;486.90;793.60;;;;;;4861669;29;20029;-60
2022/04/12 10:19:29;;;;;;;5.10;3.42;;;486.80;768.00;;;;;;4861582;29;20045;-61
2022/04/12 10:21:55;;;;;;;5.85;3.42;;;486.70;768.00;;;;;;4862004;29;20030;-60
2022/04/12 10:24:22;;;;;;;4.15;2.80;;;486.70;844.80;;;;;;4861833;29;20033;-60
2022/04/12 10:26:51;;;;;;;7.28;4.05;;;486.80;819.20;;;;;;4861817;29;20053;-60
2022/04/12 10:29:17;;;;;;;11.90;5.30;;;486.80;844.80;;;;;;4861765;29;20029;-60
2022/04/12 10:32:03;;;;;;;8.18;4.35;;;486.80;819.20;;;;;;4861099;29;20109;-60
2022/04/12 10:34:29;;;;;;;10.45;4.93;;;487.00;844.80;;;;;;4861612;29;20036;-66
2022/04/12 10:36:55;;;;;;;5.60;3.40;;;487.00;793.60;;;;;;4862109;29;20078;-60
2022/04/12 10:39:28;;;;;;;12.55;5.57;;;487.10;793.60;;;;;;4861631;29;20373;-60
2022/04/12 10:41:56;;;;;;;9.30;4.32;;;487.10;793.60;;;;;;4861668;29;20114;-64
2022/04/12 10:44:22;;;;;;;10.30;4.68;;;487.30;793.60;;;;;;4861408;29;20044;-65
2022/04/12 10:46:52;;;;;;;5.90;3.70;;;487.30;768.00;;;;;;4861275;29;20060;-60
2022/04/12 10:49:21;;;;;;;5.85;3.22;;;512.00;768.00;;;;;;4861359;29;20052;-60
2022/04/12 10:51:57;;;;;;;5.00;3.92;;;487.30;768.00;;;;;;4861391;29;20061;-60
2022/04/12 10:54:31;;;;;;;7.05;3.58;;;487.00;793.60;;;;;;4861414;29;20515;-60
2022/04/12 10:57:15;;;;;;;;;;;487.10;768.00;;;;;;4861779;29;20033;-60
2022/04/12 10:59:50;;;;;;;18.52;4.35;;;487.10;768.00;;;;;;4861603;29;20018;-61
2022/04/12 11:02:16;;;;;;;6.40;3.67;;;487.30;768.00;;;;;;4861548;29;20033;-60
2022/04/12 11:04:42;;;;;;;3.88;3.38;;;512.00;793.60;;;;;;4861392;29;20116;-63
2022/04/12 11:07:11;;;;;;;5.13;3.60;;;487.20;742.40;;;;;;4861023;29;20112;-61
2022/04/12 11:09:37;;;;;;;8.07;4.53;;;487.00;793.60;;;;;;4861113;29;20487;-60
2022/04/12 11:12:03;;;;;;;6.68;3.65;;;487.00;819.20;;;;;;4861374;29;20061;-65
2022/04/12 11:14:36;;;;;;;5.47;3.45;;;487.10;768.00;;;;;;4861308;29;20049;-61
2022/04/12 11:17:10;;;;;;;7.25;4.88;;;487.20;768.00;;;;;;4861292;29;20025;-60
2022/04/12 11:19:45;;;;;;;6.90;4.17;;;487.20;742.40;;;;;;4861494;29;20045;-60
2022/04/12 11:22:13;;;;;;;7.97;3.40;;;487.20;768.00;;;;;;4861194;29;20269;-64
2022/04/12 11:24:39;;;;;;;7.60;3.60;;;487.20;742.40;;;;;;4861767;29;20357;-64
2022/04/12 11:27:13;;;;;;;7.28;3.72;;;487.20;768.00;;;;;;4861300;29;20029;-63
2022/04/12 11:29:41;;;;;;;13.50;4.35;;;487.30;793.60;;;;;;4854585;29;20030;-65
2022/04/12 11:32:09;;;;;;;12.90;5.03;;;512.00;793.60;;;;;;4849631;29;20500;-65
2022/04/12 11:34:37;;;;;;;9.57;3.95;;;512.20;819.20;;;;;;4847127;29;20061;-63
2022/04/12 11:37:07;;;;;;;10.65;4.10;;;512.20;768.00;;;;;;4850181;29;20022;-59
2022/04/12 11:39:40;;;;;;;13.90;4.75;;;512.20;768.00;;;;;;4852160;29;20116;-64
2022/04/12 11:42:08;;;;;;;9.07;3.83;;;512.20;768.00;;;;;;4851419;29;20026;-61
2022/04/12 11:44:34;;;;;;;6.53;3.58;;;512.30;768.00;;;;;;4850504;29;20029;-61
2022/04/12 11:47:03;;;;;;;7.70;4.53;;;512.30;768.00;;;;;;4849938;29;20036;-61
2022/04/12 11:49:40;;;;;;;12.35;4.65;;;512.30;742.40;;;;;;4847274;29;20063;-64
2022/04/12 11:52:11;;;;;;;8.40;4.28;;;512.30;742.40;;;;;;4849364;29;20090;-60
2022/04/12 11:54:42;;;;;;;10.20;5.47;;;512.30;768.00;;;;;;4850197;29;20030;-63
2022/04/12 11:57:19;;;;;;;10.77;4.32;;;512.20;742.40;;;;;;4850164;29;20049;-62
2022/04/12 11:59:48;;;;;;;7.50;4.03;;;512.20;742.40;;;;;;4852787;29;20022;-64
2022/04/12 12:02:16;;;;;;;11.00;5.70;;;512.20;768.00;;;;;;4852010;29;20449;-61
2022/04/12 12:04:54;;;;;;;18.30;7.68;;;512.20;742.40;;;;;;4839846;29;20121;-61
2022/04/12 12:07:20;;;;;;;10.63;5.25;;;512.30;742.40;;;;;;4851296;29;20049;-66